createdAt,value
2023-04-09T00:00:30.823Z,76.45
2023-04-09T00:02:58.782Z,76.43
2023-04-09T00:05:26.627Z,76.55
2023-04-09T00:07:56.136Z,76.65
2023-04-09T00:10:24.202Z,76.71
2023-04-09T00:12:51.987Z,76.53
2023-04-09T00:15:28.165Z,76.49
2023-04-09T00:17:58.237Z,76.72
2023-04-09T00:20:26.220Z,76.56
2023-04-09T00:22:56.423Z,76.53
2023-04-09T00:25:24.266Z,76.75
2023-04-09T00:27:52.108Z,76.73
2023-04-09T00:30:19.952Z,76.76
2023-04-09T00:32:47.860Z,76.38
2023-04-09T00:35:17.391Z,76.79
2023-04-09T00:37:45.222Z,76.71
2023-04-09T00:40:15.008Z,76.84
2023-04-09T00:42:43.004Z,76.72
2023-04-09T00:45:11.520Z,77.09
2023-04-09T00:47:39.405Z,77.34
2023-04-09T00:50:07.980Z,77.00
2023-04-09T00:52:36.084Z,77.30
2023-04-09T00:55:06.755Z,77.03
2023-04-09T00:57:35.939Z,77.16
2023-04-09T01:00:04.490Z,76.96
2023-04-09T01:02:32.612Z,77.10
2023-04-09T01:05:00.778Z,77.20
2023-04-09T01:07:44.099Z,77.37
2023-04-09T01:10:21.752Z,77.28
2023-04-09T01:13:01.520Z,77.29
2023-04-09T01:15:36.283Z,76.84
2023-04-09T01:18:11.218Z,77.24
2023-04-09T01:20:42.210Z,77.55
2023-04-09T01:23:19.704Z,77.66
2023-04-09T01:26:04.070Z,77.31
2023-04-09T01:28:45.791Z,77.31
2023-04-09T01:31:15.697Z,77.22
2023-04-09T01:33:43.817Z,77.39
2023-04-09T01:36:12.421Z,77.38
2023-04-09T01:38:43.795Z,77.21
2023-04-09T01:41:13.620Z,77.66
2023-04-09T01:43:43.199Z,77.56
2023-04-09T01:46:12.466Z,77.95
2023-04-09T01:48:40.542Z,77.77
2023-04-09T01:51:08.402Z,77.60
2023-04-09T01:53:37.086Z,77.72
2023-04-09T01:56:05.604Z,77.52
2023-04-09T01:58:34.214Z,77.78
2023-04-09T02:01:09.198Z,77.89
2023-04-09T02:03:42.136Z,77.93
2023-04-09T02:06:16.098Z,77.72
2023-04-09T02:08:45.866Z,77.94
2023-04-09T02:11:15.758Z,77.74
2023-04-09T02:13:44.499Z,77.92
2023-04-09T02:16:16.593Z,77.73
2023-04-09T02:18:44.717Z,78.08
2023-04-09T02:21:13.720Z,78.02
2023-04-09T02:23:41.644Z,78.09
2023-04-09T02:26:09.452Z,78.05
2023-04-09T02:28:37.439Z,78.21
2023-04-09T02:31:05.637Z,77.98
2023-04-09T02:33:35.747Z,77.97
2023-04-09T02:36:03.616Z,77.95
2023-04-09T02:38:32.164Z,77.92
2023-04-09T02:40:59.983Z,78.32
2023-04-09T02:43:27.827Z,78.23
2023-04-09T02:45:55.758Z,78.24
2023-04-09T02:48:23.541Z,78.14
2023-04-09T02:50:52.648Z,78.64
2023-04-09T02:53:21.467Z,78.11
2023-04-09T02:55:49.266Z,78.21
2023-04-09T02:58:17.088Z,78.23
2023-04-09T03:00:44.973Z,78.49
2023-04-09T03:03:12.911Z,78.70
2023-04-09T03:05:40.884Z,78.37
2023-04-09T03:08:10.027Z,78.56
2023-04-09T03:10:37.834Z,78.88
2023-04-09T03:13:05.804Z,78.75
2023-04-09T03:15:33.588Z,78.74
2023-04-09T03:18:01.395Z,78.32
2023-04-09T03:20:29.238Z,78.54
2023-04-09T03:22:57.026Z,78.18
2023-04-09T03:25:38.062Z,78.60
2023-04-09T03:28:12.978Z,78.43
2023-04-09T03:30:47.281Z,78.61
2023-04-09T03:33:16.025Z,78.93
2023-04-09T03:35:51.663Z,78.91
2023-04-09T03:38:26.427Z,78.80
2023-04-09T03:40:56.989Z,78.76
2023-04-09T03:43:24.920Z,78.78
2023-04-09T03:45:54.217Z,78.69
2023-04-09T03:48:26.083Z,79.25
2023-04-09T03:50:54.546Z,78.88
2023-04-09T03:53:38.571Z,78.90
2023-04-09T03:56:09.567Z,78.95
2023-04-09T03:58:38.014Z,78.77
2023-04-09T04:01:07.586Z,79.00
2023-04-09T04:03:44.058Z,78.92
2023-04-09T04:06:20.935Z,78.71
2023-04-09T04:09:06.879Z,78.92
2023-04-09T04:11:44.167Z,79.00
2023-04-09T04:14:12.525Z,79.05
2023-04-09T04:16:43.025Z,79.09
2023-04-09T04:19:14.590Z,79.11
2023-04-09T04:21:47.252Z,79.17
2023-04-09T04:24:15.069Z,79.31
2023-04-09T04:26:44.274Z,79.23
2023-04-09T04:29:15.145Z,78.98
2023-04-09T04:31:54.429Z,79.31
2023-04-09T04:34:24.812Z,79.30
2023-04-09T04:37:01.236Z,79.23
2023-04-09T04:39:32.597Z,78.94
2023-04-09T04:42:06.564Z,79.15
2023-04-09T04:44:34.427Z,79.29
2023-04-09T04:47:13.068Z,79.29
2023-04-09T04:49:41.140Z,79.14
2023-04-09T04:52:09.902Z,79.42
2023-04-09T04:54:40.339Z,79.60
2023-04-09T04:57:09.737Z,79.48
2023-04-09T04:59:41.457Z,79.59
2023-04-09T05:02:11.959Z,79.54
2023-04-09T05:04:50.524Z,79.49
2023-04-09T05:07:21.175Z,79.22
2023-04-09T05:09:52.620Z,79.67
2023-04-09T05:12:21.764Z,79.55
2023-04-09T05:14:52.618Z,79.65
2023-04-09T05:17:20.563Z,79.67
2023-04-09T05:19:52.425Z,79.84
2023-04-09T05:22:23.788Z,79.27
2023-04-09T05:24:52.537Z,79.95
2023-04-09T05:27:24.211Z,80.04
2023-04-09T05:29:58.042Z,79.84
2023-04-09T05:32:26.902Z,79.53
2023-04-09T05:34:55.083Z,79.47
2023-04-09T05:37:23.049Z,79.60
2023-04-09T05:39:53.235Z,79.59
2023-04-09T05:42:22.356Z,79.79
2023-04-09T05:45:03.432Z,79.72
2023-04-09T05:47:31.287Z,79.56
2023-04-09T05:50:12.705Z,79.82
2023-04-09T05:52:41.412Z,80.25
2023-04-09T05:55:11.114Z,80.19
2023-04-09T05:57:52.895Z,79.71
2023-04-09T06:00:21.717Z,79.63
2023-04-09T06:02:51.587Z,80.16
2023-04-09T06:05:19.452Z,79.92
2023-04-09T06:07:48.796Z,80.17
2023-04-09T06:10:16.549Z,79.85
2023-04-09T06:12:44.851Z,79.93
2023-04-09T06:15:14.233Z,80.05
2023-04-09T06:17:42.018Z,79.82
2023-04-09T06:20:10.836Z,80.30
2023-04-09T06:22:38.753Z,80.20
2023-04-09T06:25:07.889Z,80.03
2023-04-09T06:27:35.717Z,80.27
2023-04-09T06:30:03.613Z,80.27
2023-04-09T06:32:37.673Z,79.99
2023-04-09T06:35:11.349Z,79.96
2023-04-09T06:37:42.168Z,80.04
2023-04-09T06:40:10.722Z,80.55
2023-04-09T06:42:38.721Z,80.19
2023-04-09T06:45:16.153Z,80.59
2023-04-09T06:47:45.316Z,80.02
2023-04-09T06:50:13.174Z,80.03
2023-04-09T06:52:41.498Z,80.31
2023-04-09T06:55:10.667Z,80.34
2023-04-09T06:57:39.238Z,80.39
2023-04-09T07:00:09.699Z,80.47
2023-04-09T07:02:37.941Z,80.81
2023-04-09T07:05:07.846Z,80.13
2023-04-09T07:07:35.610Z,80.60
2023-04-09T07:10:03.448Z,80.88
2023-04-09T07:12:32.498Z,80.35
2023-04-09T07:15:00.695Z,80.93
2023-04-09T07:17:29.154Z,80.51
2023-04-09T07:19:56.966Z,80.91
2023-04-09T07:22:27.628Z,80.19
2023-04-09T07:24:55.397Z,80.65
2023-04-09T07:27:23.244Z,80.68
2023-04-09T07:29:51.241Z,80.50
2023-04-09T07:32:19.049Z,79.88
2023-04-09T07:34:47.014Z,80.33
2023-04-09T07:37:14.777Z,80.69
2023-04-09T07:39:44.001Z,80.33
2023-04-09T07:42:11.776Z,80.91
2023-04-09T07:44:39.562Z,79.83
2023-04-09T07:47:08.862Z,80.16
2023-04-09T07:49:37.259Z,80.56
2023-04-09T07:52:05.440Z,80.10
2023-04-09T07:54:33.369Z,80.27
2023-04-09T07:57:03.361Z,81.01
2023-04-09T07:59:31.810Z,80.19
2023-04-09T08:01:59.932Z,80.22
2023-04-09T08:04:28.412Z,80.22
2023-04-09T08:06:56.292Z,80.74
2023-04-09T08:09:24.142Z,80.82
2023-04-09T08:11:52.094Z,80.97
2023-04-09T08:14:21.355Z,80.50
2023-04-09T08:16:50.127Z,80.91
2023-04-09T08:19:19.072Z,80.55
2023-04-09T08:21:48.776Z,80.30
2023-04-09T08:24:17.194Z,80.89
2023-04-09T08:26:45.257Z,80.82
2023-04-09T08:29:14.355Z,80.89
2023-04-09T08:31:43.701Z,80.79
2023-04-09T08:34:11.840Z,80.86
2023-04-09T08:36:39.727Z,80.39
2023-04-09T08:39:07.538Z,80.79
2023-04-09T08:41:37.222Z,80.54
2023-04-09T08:44:05.168Z,80.82
2023-04-09T08:46:33.020Z,80.55
2023-04-09T08:49:02.942Z,80.70
2023-04-09T08:51:31.491Z,80.41
2023-04-09T08:54:03.702Z,80.34
2023-04-09T08:56:32.473Z,80.50
2023-04-09T08:59:00.386Z,80.51
2023-04-09T09:01:29.668Z,80.47
2023-04-09T09:04:00.601Z,80.73
2023-04-09T09:06:33.052Z,80.51
2023-04-09T09:09:03.491Z,80.55
2023-04-09T09:11:31.387Z,80.52
2023-04-09T09:14:00.021Z,80.34
2023-04-09T09:16:28.278Z,80.13
2023-04-09T09:18:57.265Z,80.47
2023-04-09T09:21:26.314Z,80.47
2023-04-09T09:23:56.376Z,80.37
2023-04-09T09:26:25.759Z,80.42
2023-04-09T09:28:54.260Z,80.58
2023-04-09T09:31:24.025Z,80.35
2023-04-09T09:33:52.685Z,80.36
2023-04-09T09:36:33.128Z,80.27
2023-04-09T09:39:08.262Z,80.34
2023-04-09T09:41:36.068Z,80.51
2023-04-09T09:44:04.516Z,80.22
2023-04-09T09:46:35.279Z,80.29
2023-04-09T09:49:03.260Z,80.17
2023-04-09T09:51:33.420Z,80.23
2023-04-09T09:54:06.261Z,80.11
2023-04-09T09:56:38.875Z,80.09
2023-04-09T09:59:14.107Z,80.33
2023-04-09T10:01:42.164Z,80.36
2023-04-09T10:04:14.851Z,80.07
2023-04-09T10:06:44.967Z,80.27
2023-04-09T10:09:14.633Z,80.18
2023-04-09T10:11:45.593Z,79.95
2023-04-09T10:14:14.529Z,79.94
2023-04-09T10:16:42.453Z,80.00
2023-04-09T10:19:14.144Z,80.15
2023-04-09T10:21:49.432Z,80.11
2023-04-09T10:24:18.641Z,79.85
2023-04-09T10:26:46.947Z,79.89
2023-04-09T10:29:15.922Z,79.95
2023-04-09T10:31:48.568Z,80.20
2023-04-09T10:34:16.587Z,79.84
2023-04-09T10:36:45.245Z,79.89
2023-04-09T10:39:14.615Z,79.73
2023-04-09T10:41:45.608Z,80.08
2023-04-09T10:44:23.298Z,79.58
2023-04-09T10:46:53.765Z,79.31
2023-04-09T10:49:23.768Z,79.71
2023-04-09T10:51:56.117Z,79.63
2023-04-09T10:54:49.129Z,79.92
2023-04-09T10:57:24.562Z,79.30
2023-04-09T10:59:53.478Z,79.51
2023-04-09T11:03:08.203Z,79.58
2023-04-09T11:05:38.232Z,79.18
2023-04-09T11:08:09.347Z,79.46
2023-04-09T11:10:37.899Z,79.26
2023-04-09T11:13:07.110Z,79.00
2023-04-09T11:15:36.720Z,79.49
2023-04-09T11:18:06.891Z,79.41
2023-04-09T11:20:35.487Z,79.44
2023-04-09T11:23:03.611Z,79.31
2023-04-09T11:25:34.532Z,78.81
2023-04-09T11:28:04.912Z,78.97
2023-04-09T11:30:35.621Z,78.75
2023-04-09T11:33:03.601Z,79.06
2023-04-09T11:35:31.599Z,78.80
2023-04-09T11:37:59.406Z,78.73
2023-04-09T11:40:29.060Z,78.81
2023-04-09T11:42:57.637Z,78.69
2023-04-09T11:45:28.626Z,78.53
2023-04-09T11:47:58.565Z,78.88
2023-04-09T11:50:29.672Z,78.40
2023-04-09T11:52:57.655Z,78.41
2023-04-09T11:55:26.625Z,78.50
2023-04-09T11:57:57.663Z,78.35
2023-04-09T12:00:26.132Z,78.23
2023-04-09T12:03:03.777Z,78.28
2023-04-09T12:05:33.868Z,78.20
2023-04-09T12:08:06.986Z,78.32
2023-04-09T12:10:37.273Z,77.91
2023-04-09T12:13:08.167Z,77.78
2023-04-09T12:15:37.271Z,78.16
2023-04-09T12:18:09.913Z,78.06
2023-04-09T12:20:39.590Z,77.78
2023-04-09T12:23:09.008Z,77.82
2023-04-09T12:25:38.877Z,77.85
2023-04-09T12:28:08.480Z,77.67
2023-04-09T12:30:36.629Z,77.55
2023-04-09T12:33:07.660Z,77.48
2023-04-09T12:35:38.025Z,77.38
2023-04-09T12:38:06.168Z,77.29
2023-04-09T12:40:34.257Z,77.33
2023-04-09T12:43:02.435Z,77.05
2023-04-09T12:45:31.030Z,77.19
2023-04-09T12:47:59.021Z,77.04
2023-04-09T12:50:28.617Z,77.00
2023-04-09T12:52:56.435Z,77.02
2023-04-09T12:55:24.200Z,76.86
2023-04-09T12:57:52.044Z,76.74
2023-04-09T13:00:19.917Z,76.64
2023-04-09T13:02:47.917Z,76.63
2023-04-09T13:05:15.839Z,76.65
2023-04-09T13:07:45.064Z,76.39
2023-04-09T13:10:12.818Z,76.44
2023-04-09T13:12:40.570Z,76.33
2023-04-09T13:15:08.758Z,76.14
2023-04-09T13:17:36.646Z,76.12
2023-04-09T13:20:05.019Z,75.99
2023-04-09T13:22:32.854Z,75.91
2023-04-09T13:25:01.945Z,75.85
2023-04-09T13:27:29.733Z,75.80
2023-04-09T13:29:57.543Z,75.62
2023-04-09T13:32:25.329Z,75.63
2023-04-09T13:34:54.126Z,75.51
2023-04-09T13:37:21.949Z,75.28
2023-04-09T13:39:51.046Z,75.19
2023-04-09T13:42:20.182Z,75.26
2023-04-09T13:44:47.941Z,75.11
2023-04-09T13:47:17.680Z,74.83
2023-04-09T13:49:45.811Z,74.95
2023-04-09T13:52:15.780Z,74.70
2023-04-09T13:54:43.547Z,74.71
2023-04-09T13:57:11.411Z,74.65
2023-04-09T13:59:42.360Z,74.71
2023-04-09T14:02:10.338Z,74.52
2023-04-09T14:04:38.206Z,74.35
2023-04-09T14:07:06.178Z,73.98
2023-04-09T14:09:33.942Z,74.09
2023-04-09T14:12:01.907Z,73.75
2023-04-09T14:14:29.683Z,73.99
2023-04-09T14:16:58.783Z,74.06
2023-04-09T14:19:26.530Z,73.54
2023-04-09T14:21:55.603Z,73.66
2023-04-09T14:24:23.407Z,73.60
2023-04-09T14:26:53.107Z,73.41
2023-04-09T14:29:22.043Z,73.32
2023-04-09T14:31:49.917Z,73.25
2023-04-09T14:34:19.088Z,72.89
2023-04-09T14:36:46.909Z,72.91
2023-04-09T14:39:14.679Z,72.94
2023-04-09T14:41:42.526Z,72.86
2023-04-09T14:44:10.308Z,72.75
2023-04-09T14:46:38.179Z,72.59
2023-04-09T14:49:05.942Z,72.46
2023-04-09T14:51:35.473Z,72.43
2023-04-09T14:54:03.231Z,72.21
2023-04-09T14:56:30.995Z,72.31
2023-04-09T14:58:58.804Z,72.07
2023-04-09T15:01:27.360Z,71.92
2023-04-09T15:03:55.653Z,71.96
2023-04-09T15:06:23.708Z,71.77
2023-04-09T15:08:52.992Z,71.80
2023-04-09T15:11:22.768Z,71.43
2023-04-09T15:13:50.704Z,71.62
2023-04-09T15:16:22.981Z,71.44
2023-04-09T15:18:52.015Z,71.21
2023-04-09T15:21:20.714Z,71.37
2023-04-09T15:23:48.902Z,71.10
2023-04-09T15:26:18.076Z,71.04
2023-04-09T15:28:46.141Z,70.97
2023-04-09T15:31:13.937Z,70.87
2023-04-09T15:33:43.726Z,70.70
2023-04-09T15:36:11.974Z,70.52
2023-04-09T15:38:39.920Z,70.47
2023-04-09T15:41:07.689Z,70.53
2023-04-09T15:43:36.883Z,70.42
2023-04-09T15:46:09.766Z,70.39
2023-04-09T15:48:37.839Z,70.31
2023-04-09T15:51:06.114Z,70.21
2023-04-09T15:53:33.869Z,70.07
2023-04-09T15:56:01.711Z,69.93
2023-04-09T15:58:29.822Z,69.81
2023-04-09T16:00:59.071Z,69.75
2023-04-09T16:03:26.962Z,69.71
2023-04-09T16:05:54.700Z,69.67
2023-04-09T16:08:22.442Z,69.37
2023-04-09T16:10:50.221Z,69.43
2023-04-09T16:13:17.962Z,69.42
2023-04-09T16:15:46.791Z,69.20
2023-04-09T16:18:16.006Z,69.17
2023-04-09T16:20:43.946Z,69.13
2023-04-09T16:23:11.751Z,69.02
2023-04-09T16:25:39.499Z,69.07
2023-04-09T16:28:08.457Z,68.94
2023-04-09T16:30:36.591Z,68.97
2023-04-09T16:33:04.626Z,68.62
2023-04-09T16:35:33.771Z,68.71
2023-04-09T16:38:01.562Z,68.66
2023-04-09T16:40:29.447Z,68.53
2023-04-09T16:42:57.190Z,68.48
2023-04-09T16:45:25.071Z,68.40
2023-04-09T16:47:54.562Z,68.27
2023-04-09T16:50:22.687Z,68.24
2023-04-09T16:52:52.004Z,68.06
2023-04-09T16:55:21.438Z,68.33
2023-04-09T16:57:49.184Z,67.92
2023-04-09T17:00:18.078Z,68.08
2023-04-09T17:02:46.285Z,67.78
2023-04-09T17:05:14.450Z,67.83
2023-04-09T17:07:43.090Z,67.61
2023-04-09T17:10:12.584Z,67.74
2023-04-09T17:12:40.406Z,67.55
2023-04-09T17:15:09.425Z,67.43
2023-04-09T17:17:38.046Z,67.67
2023-04-09T17:20:07.051Z,67.37
2023-04-09T17:22:35.615Z,67.20
2023-04-09T17:25:04.755Z,67.26
2023-04-09T17:27:33.857Z,67.25
2023-04-09T17:30:02.024Z,67.26
2023-04-09T17:32:29.965Z,67.01
2023-04-09T17:34:59.452Z,67.28
2023-04-09T17:37:28.801Z,67.25
2023-04-09T17:39:56.629Z,67.18
2023-04-09T17:42:24.532Z,67.04
2023-04-09T17:44:53.762Z,67.04
2023-04-09T17:47:21.674Z,66.73
2023-04-09T17:49:49.506Z,66.91
2023-04-09T17:52:17.265Z,66.56
2023-04-09T17:54:46.626Z,66.76
2023-04-09T17:57:15.468Z,66.82
2023-04-09T17:59:43.428Z,66.56
2023-04-09T18:02:12.800Z,66.74
2023-04-09T18:04:40.839Z,66.61
2023-04-09T18:07:08.866Z,66.76
2023-04-09T18:09:39.044Z,66.61
2023-04-09T18:12:06.924Z,66.44
2023-04-09T18:14:34.748Z,66.48
2023-04-09T18:17:02.532Z,66.33
2023-04-09T18:19:31.645Z,66.28
2023-04-09T18:21:59.432Z,66.25
2023-04-09T18:24:28.345Z,66.02
2023-04-09T18:26:57.339Z,66.19
2023-04-09T18:29:27.153Z,66.21
2023-04-09T18:31:55.721Z,65.98
2023-04-09T18:34:23.903Z,66.25
2023-04-09T18:36:54.437Z,65.85
2023-04-09T18:39:22.732Z,66.26
2023-04-09T18:41:50.506Z,65.92
2023-04-09T18:44:18.248Z,66.09
2023-04-09T18:46:46.657Z,65.84
2023-04-09T18:49:14.478Z,65.74
2023-04-09T18:51:42.203Z,66.06
2023-04-09T18:54:11.317Z,65.89
2023-04-09T18:56:39.076Z,65.48
2023-04-09T18:59:06.811Z,65.58
2023-04-09T19:01:34.803Z,65.86
2023-04-09T19:04:02.887Z,65.71
2023-04-09T19:06:33.067Z,65.57
2023-04-09T19:09:00.794Z,65.79
2023-04-09T19:11:29.888Z,65.83
2023-04-09T19:13:57.724Z,65.80
2023-04-09T19:16:25.555Z,65.74
2023-04-09T19:18:53.529Z,65.58
2023-04-09T19:21:21.340Z,65.39
2023-04-09T19:23:49.049Z,65.72
2023-04-09T19:26:18.130Z,65.59
2023-04-09T19:28:47.773Z,65.37
2023-04-09T19:31:16.837Z,65.67
2023-04-09T19:33:44.647Z,65.51
2023-04-09T19:36:18.364Z,65.30
2023-04-09T19:38:46.127Z,65.43
2023-04-09T19:41:13.931Z,65.53
2023-04-09T19:43:42.313Z,65.41
2023-04-09T19:46:11.459Z,65.22
2023-04-09T19:48:40.711Z,65.23
2023-04-09T19:51:08.460Z,65.65
2023-04-09T19:53:37.481Z,65.36
2023-04-09T19:56:05.565Z,65.44
2023-04-09T19:58:33.641Z,65.54
2023-04-09T20:01:01.644Z,65.03
2023-04-09T20:03:32.887Z,65.76
2023-04-09T20:06:00.938Z,65.14
2023-04-09T20:08:28.667Z,65.07
2023-04-09T20:10:56.428Z,65.33
2023-04-09T20:13:25.309Z,65.27
2023-04-09T20:15:53.068Z,65.24
2023-04-09T20:18:20.806Z,65.72
2023-04-09T20:20:50.654Z,65.39
2023-04-09T20:23:18.406Z,64.96
2023-04-09T20:25:46.239Z,65.06
2023-04-09T20:28:13.961Z,65.72
2023-04-09T20:30:42.809Z,65.88
2023-04-09T20:33:10.788Z,65.33
2023-04-09T20:35:38.576Z,65.33
2023-04-09T20:38:07.761Z,65.37
2023-04-09T20:40:37.398Z,65.63
2023-04-09T20:43:05.294Z,65.86
2023-04-09T20:45:33.087Z,65.48
2023-04-09T20:48:01.108Z,65.36
2023-04-09T20:50:29.549Z,65.45
2023-04-09T20:52:57.566Z,65.04
2023-04-09T20:55:26.890Z,65.29
2023-04-09T20:57:55.219Z,65.36
2023-04-09T21:00:23.499Z,65.69
2023-04-09T21:02:51.876Z,66.01
2023-04-09T21:05:23.372Z,65.28
2023-04-09T21:07:53.817Z,65.33
2023-04-09T21:10:21.653Z,65.91
2023-04-09T21:12:50.863Z,65.39
2023-04-09T21:15:18.792Z,64.89
2023-04-09T21:17:46.546Z,65.22
2023-04-09T21:20:15.105Z,65.48
2023-04-09T21:22:42.878Z,65.58
2023-04-09T21:25:11.680Z,65.76
2023-04-09T21:27:40.860Z,65.12
2023-04-09T21:30:11.126Z,65.88
2023-04-09T21:32:39.057Z,65.17
2023-04-09T21:35:07.349Z,65.33
2023-04-09T21:37:35.373Z,65.82
2023-04-09T21:40:03.195Z,65.39
2023-04-09T21:42:31.460Z,65.61
2023-04-09T21:44:59.240Z,65.49
2023-04-09T21:47:28.532Z,65.54
2023-04-09T21:49:56.765Z,65.32
2023-04-09T21:52:25.149Z,65.38
2023-04-09T21:54:52.922Z,65.79
2023-04-09T21:57:20.715Z,65.93
2023-04-09T21:59:48.436Z,66.04
2023-04-09T22:06:36.099Z,66.21
2023-04-09T22:09:04.294Z,65.63
2023-04-09T22:11:34.093Z,65.88
2023-04-09T22:14:01.850Z,66.02
2023-04-09T22:16:29.682Z,66.28
2023-04-09T22:18:57.890Z,65.56
2023-04-09T22:21:26.450Z,66.20
2023-04-09T22:23:55.938Z,66.45
2023-04-09T22:26:23.902Z,66.67
2023-04-09T22:28:52.276Z,65.71
2023-04-09T22:31:20.984Z,66.05
2023-04-09T22:33:48.764Z,65.46
2023-04-09T22:36:16.624Z,65.96
2023-04-09T22:38:44.357Z,66.09
2023-04-09T22:41:13.452Z,66.10
2023-04-09T22:43:41.237Z,66.31
2023-04-09T22:46:09.041Z,65.90
2023-04-09T22:48:44.032Z,66.15
2023-04-09T22:51:12.888Z,66.13
2023-04-09T22:53:41.097Z,66.57
2023-04-09T22:56:09.533Z,66.61
2023-04-09T22:58:38.853Z,66.42
2023-04-09T23:01:07.435Z,65.91
2023-04-09T23:03:36.333Z,66.43
2023-04-09T23:06:04.442Z,66.62
2023-04-09T23:08:32.226Z,66.36
2023-04-09T23:11:00.016Z,66.21
2023-04-09T23:13:27.839Z,67.23
2023-04-09T23:15:57.006Z,66.92
2023-04-09T23:18:24.775Z,66.33
2023-04-09T23:20:52.616Z,66.15
2023-04-09T23:23:20.343Z,66.04
2023-04-09T23:25:48.042Z,66.77
2023-04-09T23:28:15.909Z,66.92
2023-04-09T23:30:45.037Z,66.22
2023-04-09T23:33:14.105Z,66.44
2023-04-09T23:35:41.865Z,66.79
2023-04-09T23:38:09.649Z,66.61
2023-04-09T23:40:37.436Z,66.79
2023-04-09T23:43:05.370Z,66.76
2023-04-09T23:45:33.166Z,66.72
2023-04-09T23:48:00.941Z,66.51
2023-04-09T23:50:30.367Z,67.17
2023-04-09T23:52:59.907Z,67.12
2023-04-09T23:55:28.160Z,66.49
2023-04-09T23:57:56.445Z,66.52
